Terminal Aerodrome Forecast
Issued by NWS

Home | Current Version | Previous Version | Graphics & Text | Print | Product List | Glossary On
Versions: 1 2 3 4 5 6 7 8 9 10 11 12 13 14 15 16
282
FTUS43 KBIS 201923 AAA
TAFMOT
TAF AMD
KMOT 201923Z 2019/2118 04010G18KT P6SM SCT120
     FM210300 07007KT P6SM BKN130
     FM210600 29004KT P6SM SCT130
     FM211500 30009KT P6SM SCT140=

USA.gov is the U.S. government's official web portal to all federal, state and local government web resources and services.